createdAt,value
2019-03-05T00:02:11.072Z,7.90
2019-03-05T00:04:42.141Z,7.80
2019-03-05T00:07:12.124Z,7.80
2019-03-05T00:09:42.507Z,7.80
2019-03-05T00:12:12.188Z,7.80
2019-03-05T00:14:41.264Z,7.80
2019-03-05T00:17:10.400Z,7.70
2019-03-05T00:19:39.595Z,7.70
2019-03-05T00:22:08.668Z,7.80
2019-03-05T00:25:04.009Z,7.80
2019-03-05T00:27:56.920Z,7.80
2019-03-05T00:30:58.461Z,7.70
2019-03-05T00:33:52.447Z,7.70
2019-03-05T00:36:52.344Z,7.70
2019-03-05T00:40:01.736Z,7.70
2019-03-05T00:43:01.952Z,7.60
2019-03-05T00:45:50.928Z,7.60
2019-03-05T00:49:09.033Z,7.60
2019-03-05T00:52:04.832Z,7.60
2019-03-05T00:55:20.783Z,7.60
2019-03-05T00:57:55.945Z,7.60
2019-03-05T01:00:41.416Z,7.60
2019-03-05T01:03:43.531Z,7.80
2019-03-05T01:06:27.499Z,7.70
2019-03-05T01:08:57.204Z,7.70
2019-03-05T01:11:26.695Z,7.80
2019-03-05T01:13:56.252Z,7.80
2019-03-05T01:16:28.788Z,7.80
2019-03-05T01:18:57.845Z,7.80
2019-03-05T01:21:27.076Z,7.70
2019-03-05T01:23:56.196Z,7.70
2019-03-05T01:26:25.344Z,7.60
2019-03-05T01:28:54.508Z,7.60
2019-03-05T01:31:42.729Z,7.60
2019-03-05T01:34:36.906Z,7.60
2019-03-05T01:37:08.098Z,7.60
2019-03-05T01:39:52.531Z,7.40
2019-03-05T01:42:22.060Z,7.50
2019-03-05T01:44:51.187Z,7.40
2019-03-05T01:47:20.392Z,7.30
2019-03-05T01:49:49.696Z,7.30
2019-03-05T01:52:19.068Z,7.20
2019-03-05T01:54:48.357Z,7.10
2019-03-05T01:57:17.828Z,7.00
2019-03-05T01:59:47.208Z,7.00
2019-03-05T02:02:16.605Z,6.80
2019-03-05T02:04:46.040Z,6.80
2019-03-05T02:07:15.269Z,6.70
2019-03-05T02:09:44.345Z,6.70
2019-03-05T02:12:13.416Z,6.60
2019-03-05T02:14:42.735Z,6.60
2019-03-05T02:17:12.060Z,6.70
2019-03-05T02:19:46.488Z,6.70
2019-03-05T02:22:45.407Z,6.60
2019-03-05T02:25:56.952Z,6.60
2019-03-05T02:29:07.176Z,6.60
2019-03-05T02:32:07.664Z,6.60
2019-03-05T02:35:07.476Z,6.70
2019-03-05T02:37:57.645Z,6.60
2019-03-05T02:41:13.214Z,6.60
2019-03-05T02:44:00.124Z,6.60
2019-03-05T02:47:05.312Z,6.60
2019-03-05T02:50:11.265Z,6.60
2019-03-05T02:56:31.361Z,6.60
2019-03-05T02:58:58.890Z,6.70
2019-03-05T03:01:50.233Z,6.80
2019-03-05T03:04:21.067Z,6.80
2019-03-05T03:06:50.594Z,6.80
2019-03-05T03:10:07.248Z,6.80
2019-03-05T03:12:55.325Z,6.90
2019-03-05T03:15:25.932Z,7.00
2019-03-05T03:17:55.051Z,7.00
2019-03-05T03:20:24.852Z,7.00
2019-03-05T03:23:09.642Z,7.00
2019-03-05T03:25:39.113Z,7.00
2019-03-05T03:28:24.273Z,7.00
2019-03-05T03:30:53.841Z,7.00
2019-03-05T03:33:23.757Z,7.00
2019-03-05T03:35:53.829Z,6.90
2019-03-05T03:38:23.377Z,6.90
2019-03-05T03:40:52.813Z,6.80
2019-03-05T03:43:21.892Z,6.80
2019-03-05T03:45:51.476Z,6.70
2019-03-05T03:48:22.984Z,6.70
2019-03-05T03:50:52.060Z,6.80
2019-03-05T03:53:21.381Z,6.80
2019-03-05T03:55:51.256Z,6.80
2019-03-05T03:58:21.427Z,6.80
2019-03-05T04:00:53.795Z,6.80
2019-03-05T04:03:22.865Z,6.70
2019-03-05T04:05:52.426Z,6.70
2019-03-05T04:08:21.904Z,6.60
2019-03-05T04:10:51.245Z,6.60
2019-03-05T04:13:20.359Z,6.60
2019-03-05T04:15:50.035Z,6.50
2019-03-05T04:18:19.137Z,6.50
2019-03-05T04:20:53.821Z,6.30
2019-03-05T04:23:22.932Z,6.40
2019-03-05T04:25:52.988Z,6.40
2019-03-05T04:28:22.914Z,6.30
2019-03-05T04:30:52.124Z,6.40
2019-03-05T04:33:40.296Z,6.40
2019-03-05T04:36:09.349Z,6.40
2019-03-05T04:38:38.493Z,6.40
2019-03-05T04:41:08.403Z,6.50
2019-03-05T04:43:37.484Z,6.50
2019-03-05T04:46:25.672Z,6.60
2019-03-05T04:49:32.141Z,6.60
2019-03-05T04:52:04.283Z,6.60
2019-03-05T04:54:33.552Z,6.60
2019-03-05T04:57:03.268Z,6.70
2019-03-05T04:59:32.351Z,6.80
2019-03-05T05:02:01.496Z,6.80
2019-03-05T05:04:30.582Z,6.80
2019-03-05T05:06:59.675Z,6.90
2019-03-05T05:09:28.836Z,6.90
2019-03-05T05:11:58.176Z,7.00
2019-03-05T05:14:27.619Z,7.00
2019-03-05T05:16:57.038Z,7.10
2019-03-05T05:19:27.414Z,7.10
2019-03-05T05:21:56.530Z,7.10
2019-03-05T05:24:26.527Z,7.20
2019-03-05T05:26:55.603Z,7.10
2019-03-05T05:29:24.979Z,7.10
2019-03-05T05:31:53.989Z,7.10
2019-03-05T05:34:23.660Z,7.10
2019-03-05T05:36:52.720Z,7.10
2019-03-05T05:39:56.983Z,7.20
2019-03-05T05:42:26.413Z,7.20
2019-03-05T05:44:56.088Z,7.10
2019-03-05T05:47:25.411Z,7.10
2019-03-05T05:49:54.752Z,7.10
2019-03-05T05:52:24.398Z,7.00
2019-03-05T05:54:53.528Z,7.00
2019-03-05T05:57:22.626Z,7.00
2019-03-05T05:59:52.016Z,6.90
2019-03-05T06:02:21.322Z,6.80
2019-03-05T06:04:50.523Z,6.70
2019-03-05T06:07:19.608Z,6.70
2019-03-05T06:09:50.122Z,6.60
2019-03-05T06:12:19.179Z,6.50
2019-03-05T06:14:49.329Z,6.50
2019-03-05T06:17:18.778Z,6.50
2019-03-05T06:19:47.921Z,6.50
2019-03-05T06:22:16.924Z,6.50
2019-03-05T06:24:46.803Z,6.50
2019-03-05T06:27:16.784Z,6.50
2019-03-05T06:29:45.876Z,6.50
2019-03-05T06:32:17.415Z,6.40
2019-03-05T06:34:45.896Z,6.40
2019-03-05T06:37:14.968Z,6.30
2019-03-05T06:40:04.055Z,6.30
2019-03-05T06:42:33.185Z,6.20
2019-03-05T06:45:02.496Z,6.20
2019-03-05T06:47:31.564Z,6.20
2019-03-05T06:50:00.609Z,6.20
2019-03-05T06:52:29.692Z,6.10
2019-03-05T06:54:58.868Z,6.20
2019-03-05T07:00:04.217Z,6.20
2019-03-05T07:02:33.501Z,6.20
2019-03-05T07:05:02.939Z,6.20
2019-03-05T07:07:33.500Z,6.30
2019-03-05T07:10:37.679Z,6.40
2019-03-05T07:13:19.263Z,6.20
2019-03-05T07:16:12.786Z,6.10
2019-03-05T07:18:51.583Z,6.20
2019-03-05T07:22:02.948Z,6.20
2019-03-05T07:24:51.500Z,6.20
2019-03-05T07:27:39.729Z,6.20
2019-03-05T07:30:19.539Z,6.10
2019-03-05T07:32:48.780Z,6.20
2019-03-05T07:35:20.728Z,6.10
2019-03-05T07:37:50.132Z,6.10
2019-03-05T07:40:19.471Z,6.10
2019-03-05T07:42:48.980Z,6.10
2019-03-05T07:45:19.189Z,6.10
2019-03-05T07:47:48.276Z,6.20
2019-03-05T07:50:17.353Z,6.10
2019-03-05T07:52:50.218Z,6.00
2019-03-05T07:55:19.580Z,6.00
2019-03-05T07:57:49.002Z,6.10
2019-03-05T08:00:20.008Z,6.00
2019-03-05T08:02:49.379Z,6.10
2019-03-05T08:05:19.895Z,6.10
2019-03-05T08:07:49.290Z,6.30
2019-03-05T08:10:26.916Z,6.30
2019-03-05T08:13:22.404Z,6.30
2019-03-05T08:16:27.676Z,6.40
2019-03-05T08:18:56.968Z,6.40
2019-03-05T08:21:26.575Z,6.50
2019-03-05T08:23:55.781Z,6.50
2019-03-05T08:26:24.881Z,6.60
2019-03-05T08:28:54.492Z,6.60
2019-03-05T08:31:23.569Z,6.60
2019-03-05T08:33:53.034Z,6.60
2019-03-05T08:36:22.393Z,6.60
2019-03-05T08:41:26.291Z,6.70
2019-03-05T08:43:55.629Z,6.70
2019-03-05T08:46:24.777Z,6.70
2019-03-05T08:48:53.861Z,6.70
2019-03-05T08:51:23.244Z,6.80
2019-03-05T08:53:52.543Z,6.90
2019-03-05T08:56:21.838Z,7.40
2019-03-05T08:58:51.328Z,7.30
2019-03-05T09:01:20.669Z,7.10
2019-03-05T09:03:50.393Z,7.00
2019-03-05T09:06:19.728Z,6.90
2019-03-05T09:08:48.832Z,6.90
2019-03-05T09:11:18.341Z,6.90
2019-03-05T09:13:47.695Z,6.90
2019-03-05T09:16:16.876Z,7.00
2019-03-05T09:18:46.968Z,6.90
2019-03-05T09:21:16.076Z,7.00
2019-03-05T09:23:45.388Z,7.00
2019-03-05T09:26:14.838Z,7.00
2019-03-05T09:28:44.221Z,7.00
2019-03-05T09:31:13.355Z,7.10
2019-03-05T09:33:43.261Z,7.20
2019-03-05T09:36:12.388Z,7.30
2019-03-05T09:38:41.623Z,7.40
2019-03-05T09:41:10.696Z,7.50
2019-03-05T09:43:40.907Z,7.50
2019-03-05T09:46:09.961Z,7.60
2019-03-05T09:48:39.222Z,7.60
2019-03-05T09:51:08.286Z,7.60
2019-03-05T09:53:41.596Z,7.80
2019-03-05T09:56:10.704Z,7.70
2019-03-05T09:58:39.740Z,7.80
2019-03-05T10:01:09.216Z,7.90
2019-03-05T10:03:38.253Z,7.90
2019-03-05T10:06:07.602Z,8.10
2019-03-05T10:08:36.888Z,8.30
2019-03-05T10:11:07.950Z,8.30
2019-03-05T10:13:37.260Z,8.40
2019-03-05T10:16:06.936Z,8.50
2019-03-05T10:18:36.032Z,8.60
2019-03-05T10:21:05.540Z,8.70
2019-03-05T10:23:34.880Z,8.80
2019-03-05T10:26:04.421Z,8.70
2019-03-05T10:28:34.996Z,8.80
2019-03-05T10:31:05.098Z,9.00
2019-03-05T10:33:36.570Z,9.20
2019-03-05T10:36:06.000Z,9.30
2019-03-05T10:38:35.344Z,9.50
2019-03-05T10:43:40.168Z,9.80
2019-03-05T10:46:09.970Z,10.00
2019-03-05T10:48:39.090Z,10.30
2019-03-05T10:51:08.247Z,10.40
2019-03-05T10:53:37.589Z,10.20
2019-03-05T10:56:06.944Z,10.10
2019-03-05T10:58:36.023Z,10.10
2019-03-05T11:01:09.376Z,10.10
2019-03-05T11:03:38.808Z,10.20
2019-03-05T11:06:08.203Z,10.40
2019-03-05T11:08:37.298Z,10.50
2019-03-05T11:11:13.563Z,10.60
2019-03-05T11:13:37.693Z,10.80
2019-03-05T11:16:07.156Z,11.00
2019-03-05T11:18:40.615Z,10.90
2019-03-05T11:21:09.902Z,10.80
2019-03-05T11:23:39.724Z,10.60
2019-03-05T11:26:09.724Z,10.50
2019-03-05T11:28:40.014Z,10.40
2019-03-05T11:31:09.823Z,10.20
2019-03-05T11:33:39.280Z,10.20
2019-03-05T11:36:08.824Z,10.30
2019-03-05T11:38:38.641Z,10.40
2019-03-05T11:41:07.726Z,10.30
2019-03-05T11:43:56.004Z,10.20
2019-03-05T11:46:44.236Z,10.00
2019-03-05T11:49:13.416Z,10.00
2019-03-05T11:51:42.501Z,10.00
2019-03-05T11:54:11.789Z,9.90
2019-03-05T11:56:41.137Z,9.90
2019-03-05T11:59:10.533Z,9.80
2019-03-05T12:01:43.808Z,9.90
2019-03-05T12:04:13.967Z,10.00
2019-03-05T12:06:43.258Z,9.90
2019-03-05T12:09:13.142Z,9.90
2019-03-05T12:11:42.388Z,9.80
2019-03-05T12:14:11.484Z,9.80
2019-03-05T12:16:42.782Z,9.90
2019-03-05T12:19:12.581Z,10.00
2019-03-05T12:21:44.901Z,10.00
2019-03-05T12:24:19.838Z,10.00
2019-03-05T12:29:19.634Z,9.90
2019-03-05T12:34:25.843Z,9.90
2019-03-05T12:36:54.904Z,9.90
2019-03-05T12:39:24.292Z,10.00
2019-03-05T12:41:53.493Z,10.30
2019-03-05T12:44:23.234Z,10.60
2019-03-05T12:46:52.520Z,10.70
2019-03-05T12:49:23.684Z,10.70
2019-03-05T12:51:56.350Z,10.70
2019-03-05T12:54:25.582Z,10.50
2019-03-05T12:56:55.372Z,10.40
2019-03-05T12:59:24.480Z,10.50
2019-03-05T13:01:57.676Z,10.70
2019-03-05T13:04:26.883Z,10.80
2019-03-05T13:06:55.981Z,10.90
2019-03-05T13:09:25.079Z,11.10
2019-03-05T13:11:54.471Z,11.20
2019-03-05T13:14:23.856Z,11.40
2019-03-05T13:16:53.176Z,11.40
2019-03-05T13:19:28.933Z,11.30
2019-03-05T13:21:58.425Z,11.20
2019-03-05T13:24:27.562Z,11.30
2019-03-05T13:26:56.601Z,11.20
2019-03-05T13:29:26.221Z,11.20
2019-03-05T13:31:55.370Z,11.10
2019-03-05T13:34:24.484Z,10.90
2019-03-05T13:36:53.859Z,10.70
2019-03-05T13:39:25.952Z,10.60
2019-03-05T13:41:55.729Z,10.80
2019-03-05T13:44:32.254Z,10.80
2019-03-05T13:47:04.703Z,10.70
2019-03-05T13:50:08.891Z,10.60
2019-03-05T13:53:00.708Z,10.50
2019-03-05T13:56:11.817Z,10.40
2019-03-05T13:59:24.124Z,10.30
2019-03-05T14:01:53.888Z,10.40
2019-03-05T14:04:30.613Z,10.50
2019-03-05T14:07:36.616Z,10.30
2019-03-05T14:10:06.230Z,10.30
2019-03-05T14:12:35.418Z,10.10
2019-03-05T14:15:05.661Z,10.10
2019-03-05T14:17:38.646Z,10.10
2019-03-05T14:20:15.508Z,10.10
2019-03-05T14:22:44.623Z,10.20
2019-03-05T14:25:14.692Z,10.40
2019-03-05T14:27:45.539Z,10.60
2019-03-05T14:30:17.166Z,10.70
2019-03-05T14:32:46.764Z,10.80
2019-03-05T14:35:18.520Z,10.90
2019-03-05T14:37:47.810Z,11.00
2019-03-05T14:40:24.600Z,11.00
2019-03-05T14:42:52.147Z,10.80
2019-03-05T14:45:23.906Z,10.70
2019-03-05T14:50:30.088Z,10.90
2019-03-05T14:52:59.714Z,10.90
2019-03-05T14:55:28.956Z,10.80
2019-03-05T15:00:33.197Z,10.70
2019-03-05T15:03:03.551Z,10.80
2019-03-05T15:05:34.955Z,10.80
2019-03-05T15:08:04.270Z,10.90
2019-03-05T15:10:33.463Z,10.90
2019-03-05T15:13:14.968Z,11.10
2019-03-05T15:15:33.898Z,11.30
2019-03-05T15:18:03.416Z,11.30
2019-03-05T15:20:32.911Z,11.20
2019-03-05T15:23:02.040Z,11.10
2019-03-05T15:25:32.328Z,11.00
2019-03-05T15:28:01.757Z,11.00
2019-03-05T15:30:31.293Z,11.00
2019-03-05T15:33:00.656Z,10.90
2019-03-05T15:35:29.844Z,10.80
2019-03-05T15:37:59.097Z,10.80
2019-03-05T15:40:28.594Z,10.80
2019-03-05T15:42:58.030Z,10.70
2019-03-05T15:45:27.391Z,10.70
2019-03-05T15:47:56.940Z,10.70
2019-03-05T15:50:26.613Z,10.70
2019-03-05T15:52:56.004Z,10.70
2019-03-05T15:55:25.517Z,10.70
2019-03-05T15:57:54.923Z,10.60
2019-03-05T16:00:28.416Z,10.60
2019-03-05T16:02:57.834Z,10.60
2019-03-05T16:05:27.452Z,10.60
2019-03-05T16:07:56.837Z,10.60
2019-03-05T16:10:28.716Z,10.60
2019-03-05T16:12:58.032Z,10.60
2019-03-05T16:15:27.340Z,10.50
2019-03-05T16:17:56.444Z,10.50
2019-03-05T16:20:27.455Z,10.50
2019-03-05T16:22:58.200Z,10.40
2019-03-05T16:25:27.496Z,10.30
2019-03-05T16:27:57.076Z,10.30
2019-03-05T16:31:03.508Z,10.30
2019-03-05T16:33:45.805Z,10.20
2019-03-05T16:36:30.827Z,10.20
2019-03-05T16:39:22.076Z,10.20
2019-03-05T16:42:10.494Z,10.10
2019-03-05T16:45:09.588Z,10.00
2019-03-05T16:48:05.194Z,10.00
2019-03-05T16:51:05.740Z,9.90
2019-03-05T16:53:54.004Z,9.80
2019-03-05T16:56:36.296Z,9.80
2019-03-05T16:59:23.512Z,9.70
2019-03-05T17:02:02.048Z,9.70
2019-03-05T17:04:48.964Z,9.90
2019-03-05T17:07:37.114Z,9.80
2019-03-05T17:10:27.141Z,9.70
2019-03-05T17:12:56.344Z,9.60
2019-03-05T17:15:25.440Z,9.60
2019-03-05T17:17:54.512Z,9.50
2019-03-05T17:20:24.039Z,9.40
2019-03-05T17:22:53.768Z,9.40
2019-03-05T17:25:23.546Z,9.30
2019-03-05T17:27:52.767Z,9.30
2019-03-05T17:30:23.092Z,9.30
2019-03-05T17:32:52.168Z,9.30
2019-03-05T17:35:21.813Z,9.20
2019-03-05T17:37:51.278Z,9.10
2019-03-05T17:40:21.141Z,9.10
2019-03-05T17:42:50.324Z,9.10
2019-03-05T17:45:21.268Z,9.10
2019-03-05T17:47:51.166Z,9.10
2019-03-05T17:50:20.703Z,9.10
2019-03-05T17:52:51.113Z,9.00
2019-03-05T17:55:25.317Z,9.00
2019-03-05T17:57:52.196Z,9.00
2019-03-05T18:00:27.591Z,9.00
2019-03-05T18:02:56.755Z,9.00
2019-03-05T18:05:45.414Z,9.00
2019-03-05T18:08:18.454Z,9.00
2019-03-05T18:10:47.633Z,9.00
2019-03-05T18:13:16.782Z,8.90
2019-03-05T18:15:46.025Z,8.90
2019-03-05T18:18:15.669Z,8.90
2019-03-05T18:20:44.866Z,8.90
2019-03-05T18:23:14.028Z,8.90
2019-03-05T18:25:45.684Z,8.80
2019-03-05T18:28:16.177Z,8.80
2019-03-05T18:30:45.369Z,8.80
2019-03-05T18:33:14.584Z,8.80
2019-03-05T18:35:43.689Z,8.80
2019-03-05T18:38:12.803Z,8.70
2019-03-05T18:40:41.899Z,8.70
2019-03-05T18:43:11.065Z,8.70
2019-03-05T18:45:41.046Z,8.70
2019-03-05T18:48:10.136Z,8.70
2019-03-05T18:50:39.650Z,8.70
2019-03-05T18:53:10.564Z,8.60
2019-03-05T18:55:40.679Z,8.60
2019-03-05T18:58:10.798Z,8.60
2019-03-05T19:00:40.509Z,8.60
2019-03-05T19:03:09.784Z,8.60
2019-03-05T19:05:39.276Z,8.50
2019-03-05T19:08:08.421Z,8.50
2019-03-05T19:10:37.596Z,8.50
2019-03-05T19:13:07.095Z,8.40
2019-03-05T19:18:13.202Z,8.40
2019-03-05T19:20:42.984Z,8.40
2019-03-05T19:23:16.102Z,8.40
2019-03-05T19:25:46.544Z,8.30
2019-03-05T19:28:15.846Z,8.30
2019-03-05T19:30:45.078Z,8.30
2019-03-05T19:33:14.580Z,8.30
2019-03-05T19:35:43.833Z,8.20
2019-03-05T19:38:12.910Z,8.20
2019-03-05T19:40:42.284Z,8.20
2019-03-05T19:43:11.827Z,8.20
2019-03-05T19:45:41.004Z,8.20
2019-03-05T19:48:10.115Z,8.10
2019-03-05T19:50:40.009Z,8.10
2019-03-05T19:53:09.116Z,8.20
2019-03-05T19:55:38.212Z,8.10
2019-03-05T19:58:11.259Z,8.10
2019-03-05T20:00:49.772Z,8.10
2019-03-05T20:03:18.936Z,8.10
2019-03-05T20:05:48.408Z,8.10
2019-03-05T20:08:17.896Z,8.00
2019-03-05T20:10:47.115Z,8.00
2019-03-05T20:13:16.716Z,7.90
2019-03-05T20:15:45.852Z,7.90
2019-03-05T20:18:16.183Z,7.90
2019-03-05T20:20:47.205Z,7.90
2019-03-05T20:23:16.623Z,7.90
2019-03-05T20:25:49.317Z,7.80
2019-03-05T20:28:21.257Z,7.90
2019-03-05T20:30:50.601Z,7.80
2019-03-05T20:33:19.889Z,7.80
2019-03-05T20:35:57.243Z,7.80
2019-03-05T20:38:26.594Z,7.70
2019-03-05T20:40:56.212Z,7.60
2019-03-05T20:43:28.116Z,7.50
2019-03-05T20:46:03.144Z,7.40
2019-03-05T20:48:32.384Z,7.40
2019-03-05T20:51:04.424Z,7.40
2019-03-05T20:53:34.001Z,7.40
2019-03-05T20:56:08.656Z,7.40
2019-03-05T20:58:37.877Z,7.40
2019-03-05T21:01:11.347Z,7.40
2019-03-05T21:03:43.708Z,7.40
2019-03-05T21:06:13.908Z,7.40
2019-03-05T21:08:43.088Z,7.40
2019-03-05T21:11:14.300Z,7.30
2019-03-05T21:13:43.779Z,7.40
2019-03-05T21:16:13.198Z,7.40
2019-03-05T21:18:44.349Z,7.40
2019-03-05T21:21:13.814Z,7.40
2019-03-05T21:23:47.504Z,7.30
2019-03-05T21:26:32.995Z,7.20
2019-03-05T21:29:04.401Z,7.20
2019-03-05T21:31:35.020Z,7.10
2019-03-05T21:34:06.501Z,7.10
2019-03-05T21:36:35.736Z,7.10
2019-03-05T21:39:11.980Z,7.10
2019-03-05T21:41:41.486Z,7.10
2019-03-05T21:44:10.604Z,7.10
2019-03-05T21:46:40.009Z,7.10
2019-03-05T21:49:09.607Z,7.10
2019-03-05T21:51:38.688Z,7.10
2019-03-05T21:54:07.860Z,7.10
2019-03-05T21:56:37.300Z,7.10
2019-03-05T21:59:07.961Z,7.10
2019-03-05T22:01:37.125Z,7.10
2019-03-05T22:04:06.234Z,7.20
2019-03-05T22:06:35.447Z,7.20
2019-03-05T22:09:10.827Z,7.20
2019-03-05T22:11:40.176Z,7.10
2019-03-05T22:14:09.472Z,7.20
2019-03-05T22:16:38.882Z,7.20
2019-03-05T22:19:08.131Z,7.20
2019-03-05T22:21:39.184Z,7.20
2019-03-05T22:24:08.408Z,7.20
2019-03-05T22:26:37.509Z,7.20
2019-03-05T22:29:06.896Z,7.20
2019-03-05T22:31:36.767Z,7.20
2019-03-05T22:34:05.848Z,7.20
2019-03-05T22:36:35.164Z,7.10
2019-03-05T22:39:05.274Z,7.10
2019-03-05T22:41:34.680Z,7.10
2019-03-05T22:44:04.762Z,7.20
2019-03-05T22:46:34.392Z,7.20
2019-03-05T22:51:39.384Z,7.10
2019-03-05T22:54:08.532Z,7.10
2019-03-05T22:56:38.256Z,7.10
2019-03-05T22:59:08.219Z,7.20
2019-03-05T23:01:40.449Z,7.20
2019-03-05T23:04:11.784Z,7.30
2019-03-05T23:06:42.296Z,7.30
2019-03-05T23:09:19.254Z,7.30
2019-03-05T23:11:48.776Z,7.30
2019-03-05T23:14:18.188Z,7.30
2019-03-05T23:16:47.404Z,7.30
2019-03-05T23:19:16.912Z,7.30
2019-03-05T23:21:46.325Z,7.40
2019-03-05T23:24:15.800Z,7.40
2019-03-05T23:26:44.964Z,7.40
2019-03-05T23:29:16.172Z,7.40
2019-03-05T23:31:45.852Z,7.40
2019-03-05T23:34:18.231Z,7.40
2019-03-05T23:36:46.313Z,7.40
2019-03-05T23:39:18.056Z,7.40
2019-03-05T23:41:47.135Z,7.50
2019-03-05T23:44:16.676Z,7.40
2019-03-05T23:46:46.060Z,7.40
2019-03-05T23:49:15.922Z,7.50
2019-03-05T23:51:45.096Z,7.50
2019-03-05T23:54:14.473Z,7.50
2019-03-05T23:56:43.877Z,7.50
2019-03-05T23:59:13.481Z,7.50
